createdAt,value
2019-04-16T00:00:24.915Z,9.78
2019-04-16T00:02:59.931Z,11.73
2019-04-16T00:05:28.974Z,9.88
2019-04-16T00:07:57.992Z,15.32
2019-04-16T00:10:32.946Z,12.75
2019-04-16T00:13:02.111Z,15.40
2019-04-16T00:15:29.390Z,12.45
2019-04-16T00:17:56.659Z,11.50
2019-04-16T00:20:23.908Z,10.15
2019-04-16T00:23:04.908Z,13.32
2019-04-16T00:25:32.128Z,10.45
2019-04-16T00:28:00.210Z,16.00
2019-04-16T00:30:28.511Z,15.03
2019-04-16T00:32:55.851Z,15.18
2019-04-16T00:35:23.046Z,14.87
2019-04-16T00:37:51.665Z,10.68
2019-04-16T00:40:19.596Z,18.82
2019-04-16T00:42:46.848Z,14.60
2019-04-16T00:45:14.142Z,15.13
2019-04-16T00:47:41.404Z,15.95
2019-04-16T00:50:08.633Z,27.32
2019-04-16T00:52:37.699Z,17.37
2019-04-16T00:55:04.957Z,21.15
2019-04-16T00:57:32.193Z,21.90
2019-04-16T00:59:59.540Z,27.32
2019-04-16T01:02:26.763Z,17.10
2019-04-16T01:04:53.989Z,17.55
2019-04-16T01:07:21.288Z,15.85
2019-04-16T01:09:48.520Z,18.87
2019-04-16T01:12:15.742Z,15.03
2019-04-16T01:14:43.002Z,14.38
2019-04-16T01:17:10.213Z,19.15
2019-04-16T01:19:40.742Z,14.90
2019-04-16T01:22:06.635Z,15.88
2019-04-16T01:24:33.886Z,16.82
2019-04-16T01:27:01.113Z,18.90
2019-04-16T01:29:28.496Z,12.05
2019-04-16T01:32:14.510Z,19.37
2019-04-16T01:34:43.597Z,19.12
2019-04-16T01:37:16.013Z,16.20
2019-04-16T01:39:47.441Z,21.68
2019-04-16T01:42:14.103Z,20.97
2019-04-16T01:44:42.945Z,21.25
2019-04-16T01:47:10.397Z,20.82
2019-04-16T01:49:39.308Z,22.02
2019-04-16T01:55:36.565Z,25.43
2019-04-16T01:58:03.973Z,22.80
2019-04-16T02:00:57.933Z,23.57
2019-04-16T02:03:25.155Z,19.92
2019-04-16T02:05:54.844Z,14.95
2019-04-16T02:08:21.429Z,18.02
2019-04-16T02:10:48.655Z,15.75
2019-04-16T02:13:15.988Z,20.72
2019-04-16T02:15:43.565Z,25.82
2019-04-16T02:18:10.787Z,16.73
2019-04-16T02:20:39.326Z,14.53
2019-04-16T02:23:06.897Z,16.15
2019-04-16T02:25:34.130Z,19.00
2019-04-16T02:28:02.356Z,15.93
2019-04-16T02:30:29.802Z,15.13
2019-04-16T02:32:58.665Z,15.40
2019-04-16T02:35:25.906Z,12.47
2019-04-16T02:37:53.166Z,19.42
2019-04-16T02:40:20.916Z,14.85
2019-04-16T02:42:48.128Z,22.58
2019-04-16T02:45:15.435Z,15.93
2019-04-16T02:47:42.740Z,16.37
2019-04-16T02:50:11.774Z,18.85
2019-04-16T02:52:50.390Z,22.25
2019-04-16T02:55:23.906Z,19.48
2019-04-16T02:58:03.600Z,20.97
2019-04-16T03:00:36.308Z,16.27
2019-04-16T03:03:05.589Z,19.73
2019-04-16T03:05:37.455Z,21.37
2019-04-16T03:08:06.006Z,14.85
2019-04-16T03:10:34.848Z,16.17
2019-04-16T03:13:02.088Z,18.92
2019-04-16T03:15:43.181Z,24.05
2019-04-16T03:20:40.932Z,20.70
2019-04-16T03:23:08.283Z,20.40
2019-04-16T03:25:35.464Z,29.63
2019-04-16T03:28:02.854Z,23.62
2019-04-16T03:30:30.426Z,33.28
2019-04-16T03:32:57.619Z,37.95
2019-04-16T03:35:26.619Z,30.02
2019-04-16T03:37:53.931Z,42.20
2019-04-16T03:40:24.886Z,24.55
2019-04-16T03:42:50.179Z,26.20
2019-04-16T03:45:17.455Z,37.38
2019-04-16T03:47:44.686Z,34.80
2019-04-16T03:50:11.905Z,32.78
2019-04-16T03:52:40.852Z,58.50
2019-04-16T03:55:08.277Z,71.92
2019-04-16T03:57:35.494Z,65.90
2019-04-16T04:00:04.346Z,46.40
2019-04-16T04:02:31.587Z,40.98
2019-04-16T04:05:01.692Z,55.12
2019-04-16T04:07:27.870Z,36.80
2019-04-16T04:09:55.596Z,38.17
2019-04-16T04:12:24.122Z,38.75
2019-04-16T04:14:54.289Z,57.80
2019-04-16T04:17:21.539Z,44.20
2019-04-16T04:19:48.759Z,45.60
2019-04-16T04:22:16.041Z,58.50
2019-04-16T04:24:43.265Z,50.98
2019-04-16T04:27:14.271Z,44.67
2019-04-16T04:29:39.601Z,41.48
2019-04-16T04:32:06.969Z,37.80
2019-04-16T04:34:34.147Z,33.45
2019-04-16T04:37:02.005Z,38.60
2019-04-16T04:39:29.223Z,43.23
2019-04-16T04:41:57.228Z,49.27
2019-04-16T04:44:24.719Z,54.60
2019-04-16T04:46:51.947Z,51.15
2019-04-16T04:49:19.190Z,53.28
2019-04-16T04:51:46.486Z,41.00
2019-04-16T04:54:13.784Z,34.25
2019-04-16T04:56:41.050Z,35.92
2019-04-16T04:59:09.257Z,31.52
2019-04-16T05:01:38.197Z,34.20
2019-04-16T05:04:07.703Z,26.50
2019-04-16T05:06:42.599Z,24.82
2019-04-16T05:09:09.806Z,22.98
2019-04-16T05:11:37.025Z,21.85
2019-04-16T05:14:04.292Z,27.50
2019-04-16T05:16:34.265Z,27.60
2019-04-16T05:19:00.587Z,66.62
2019-04-16T05:21:27.862Z,52.45
2019-04-16T05:23:57.590Z,42.38
2019-04-16T05:26:24.112Z,40.43
2019-04-16T05:28:51.369Z,30.02
2019-04-16T05:31:18.677Z,26.60
2019-04-16T05:33:45.882Z,24.50
2019-04-16T05:36:14.295Z,24.82
2019-04-16T05:38:42.205Z,26.60
2019-04-16T05:41:13.515Z,25.65
2019-04-16T05:43:38.500Z,23.98
2019-04-16T05:46:08.821Z,18.02
2019-04-16T05:48:34.774Z,22.85
2019-04-16T05:51:02.077Z,25.77
2019-04-16T05:53:29.285Z,23.40
2019-04-16T05:55:58.322Z,21.82
2019-04-16T05:58:27.821Z,23.40
2019-04-16T06:01:02.137Z,18.67
2019-04-16T06:03:30.215Z,28.85
2019-04-16T06:05:59.382Z,23.32
2019-04-16T06:08:26.469Z,25.48
2019-04-16T06:10:53.763Z,32.90
2019-04-16T06:13:28.278Z,32.60
2019-04-16T06:16:13.892Z,20.50
2019-04-16T06:19:01.085Z,23.52
2019-04-16T06:21:30.160Z,32.80
2019-04-16T06:24:03.116Z,20.97
2019-04-16T06:26:44.384Z,21.85
2019-04-16T06:29:19.481Z,23.92
2019-04-16T06:31:48.538Z,17.23
2019-04-16T06:34:23.691Z,12.68
2019-04-16T06:36:54.997Z,19.90
2019-04-16T06:39:26.551Z,15.43
2019-04-16T06:41:54.921Z,22.87
2019-04-16T06:44:23.966Z,23.55
2019-04-16T06:47:01.935Z,29.75
2019-04-16T06:49:39.410Z,16.95
2019-04-16T06:52:07.636Z,24.27
2019-04-16T06:54:45.307Z,36.55
2019-04-16T06:57:13.391Z,15.65
2019-04-16T06:59:45.411Z,19.23
2019-04-16T07:02:30.837Z,13.93
2019-04-16T07:05:01.185Z,25.25
2019-04-16T07:10:16.509Z,13.25
2019-04-16T07:12:43.776Z,12.20
2019-04-16T07:15:12.032Z,8.88
2019-04-16T07:17:40.615Z,12.15
2019-04-16T07:20:13.061Z,10.32
2019-04-16T07:22:38.071Z,14.30
2019-04-16T07:25:06.308Z,10.58
2019-04-16T07:27:39.078Z,11.33
2019-04-16T07:30:09.249Z,11.97
2019-04-16T07:32:47.767Z,20.95
2019-04-16T07:35:27.206Z,7.78
2019-04-16T07:38:11.511Z,10.05
2019-04-16T07:40:56.251Z,10.88
2019-04-16T07:43:41.690Z,13.50
2019-04-16T07:46:27.295Z,10.95
2019-04-16T07:49:01.116Z,14.13
2019-04-16T07:51:30.113Z,26.87
2019-04-16T07:54:13.870Z,9.48
2019-04-16T07:56:42.896Z,8.10
2019-04-16T07:59:10.107Z,9.40
2019-04-16T08:01:37.963Z,6.35
2019-04-16T08:04:05.175Z,8.48
2019-04-16T08:06:33.242Z,6.47
2019-04-16T08:09:00.518Z,7.92
2019-04-16T08:11:27.727Z,6.53
2019-04-16T08:13:54.948Z,9.65
2019-04-16T08:16:22.205Z,11.12
2019-04-16T08:18:50.230Z,8.33
2019-04-16T08:21:17.446Z,6.95
2019-04-16T08:23:51.507Z,11.08
2019-04-16T08:26:15.515Z,14.18
2019-04-16T08:28:42.760Z,12.05
2019-04-16T08:31:12.896Z,15.23
2019-04-16T08:33:40.654Z,8.35
2019-04-16T08:36:08.261Z,14.28
2019-04-16T08:38:35.614Z,12.82
2019-04-16T08:41:03.952Z,17.87
2019-04-16T08:43:31.219Z,10.95
2019-04-16T08:45:58.530Z,14.53
2019-04-16T08:48:25.769Z,16.02
2019-04-16T08:50:57.924Z,16.30
2019-04-16T08:53:22.062Z,20.82
2019-04-16T08:55:49.279Z,19.50
2019-04-16T08:58:16.488Z,17.73
2019-04-16T09:00:46.567Z,24.12
2019-04-16T09:03:15.458Z,10.32
2019-04-16T09:05:42.925Z,14.75
2019-04-16T09:08:21.839Z,12.00
2019-04-16T09:10:45.995Z,19.40
2019-04-16T09:13:18.108Z,14.95
2019-04-16T09:15:45.335Z,13.55
2019-04-16T09:18:30.169Z,13.58
2019-04-16T09:20:57.394Z,13.20
2019-04-16T09:23:26.583Z,13.65
2019-04-16T09:26:12.482Z,9.85
2019-04-16T09:28:31.068Z,10.38
2019-04-16T09:31:05.735Z,16.00
2019-04-16T09:33:53.259Z,13.62
2019-04-16T09:36:28.354Z,9.45
2019-04-16T09:38:57.354Z,12.78
2019-04-16T09:41:26.451Z,13.72
2019-04-16T09:43:57.184Z,13.45
2019-04-16T09:46:49.067Z,13.50
2019-04-16T09:48:53.570Z,11.78
2019-04-16T09:51:21.186Z,13.68
2019-04-16T09:53:48.752Z,10.65
2019-04-16T09:56:30.059Z,10.20
2019-04-16T09:59:07.342Z,13.20
2019-04-16T10:01:36.444Z,13.58
2019-04-16T10:04:04.636Z,12.98
2019-04-16T10:06:31.867Z,15.05
2019-04-16T10:08:59.361Z,13.72
2019-04-16T10:11:26.753Z,9.90
2019-04-16T10:13:54.492Z,10.82
2019-04-16T10:16:23.680Z,14.58
2019-04-16T10:18:50.919Z,23.25
2019-04-16T10:21:20.087Z,16.52
2019-04-16T10:24:03.852Z,16.57
2019-04-16T10:26:31.075Z,23.47
2019-04-16T10:29:00.114Z,13.03
2019-04-16T10:31:27.388Z,15.08
2019-04-16T10:33:54.621Z,19.60
2019-04-16T10:36:22.382Z,22.00
2019-04-16T10:39:06.555Z,23.22
2019-04-16T10:41:39.299Z,16.05
2019-04-16T10:44:11.704Z,17.50
2019-04-16T10:46:43.654Z,18.23
2019-04-16T10:49:12.711Z,18.45
2019-04-16T10:51:47.521Z,16.95
2019-04-16T10:54:25.395Z,23.00
2019-04-16T10:57:10.853Z,14.13
2019-04-16T10:59:39.933Z,13.05
2019-04-16T11:02:11.968Z,14.28
2019-04-16T11:04:43.213Z,29.75
2019-04-16T11:07:12.652Z,18.10
2019-04-16T11:09:40.363Z,19.52
2019-04-16T11:12:07.712Z,22.42
2019-04-16T11:14:34.906Z,21.33
2019-04-16T11:17:02.246Z,21.17
2019-04-16T11:19:30.677Z,24.25
2019-04-16T11:21:59.935Z,33.08
2019-04-16T11:24:27.221Z,32.63
2019-04-16T11:26:54.487Z,36.28
2019-04-16T11:29:21.690Z,41.18
2019-04-16T11:31:48.896Z,20.88
2019-04-16T11:34:17.291Z,13.50
2019-04-16T11:36:44.508Z,22.67
2019-04-16T11:39:11.835Z,35.10
2019-04-16T11:41:39.198Z,22.40
2019-04-16T11:44:15.088Z,30.30
2019-04-16T11:46:36.513Z,20.57
2019-04-16T11:49:03.810Z,16.90
2019-04-16T11:51:31.100Z,21.20
2019-04-16T11:53:58.356Z,34.73
2019-04-16T11:56:25.659Z,45.52
2019-04-16T11:58:52.949Z,22.17
2019-04-16T12:01:27.920Z,34.80
2019-04-16T12:03:56.924Z,28.07
2019-04-16T12:06:31.939Z,42.20
2019-04-16T12:09:16.007Z,35.28
2019-04-16T12:11:45.523Z,41.98
2019-04-16T12:14:29.589Z,45.48
2019-04-16T12:17:03.368Z,26.40
2019-04-16T12:19:32.392Z,20.80
2019-04-16T12:22:16.592Z,27.85
2019-04-16T12:24:48.369Z,27.20
2019-04-16T12:27:36.213Z,18.12
2019-04-16T12:30:16.122Z,18.75
2019-04-16T12:32:45.237Z,14.18
2019-04-16T12:35:31.045Z,21.23
2019-04-16T12:38:13.153Z,21.68
2019-04-16T12:40:58.092Z,30.35
2019-04-16T12:43:27.196Z,19.82
2019-04-16T12:46:14.395Z,36.10
2019-04-16T12:48:46.372Z,34.25
2019-04-16T12:51:18.679Z,30.08
2019-04-16T12:53:54.237Z,23.83
2019-04-16T12:56:41.351Z,26.97
2019-04-16T12:59:14.756Z,27.15
2019-04-16T13:01:49.546Z,27.80
2019-04-16T13:04:33.648Z,19.20
2019-04-16T13:07:08.625Z,27.05
2019-04-16T13:09:43.653Z,24.52
2019-04-16T13:12:32.549Z,26.02
2019-04-16T13:15:19.026Z,19.17
2019-04-16T13:18:06.244Z,24.07
2019-04-16T13:20:44.234Z,21.55
2019-04-16T13:23:19.045Z,11.35
2019-04-16T13:25:48.141Z,16.87
2019-04-16T13:28:15.348Z,15.50
2019-04-16T13:30:42.576Z,14.93
2019-04-16T13:33:10.081Z,13.15
2019-04-16T13:35:37.398Z,15.00
2019-04-16T13:38:08.200Z,17.48
2019-04-16T13:40:34.633Z,11.57
2019-04-16T13:43:05.587Z,15.72
2019-04-16T13:45:32.685Z,15.43
2019-04-16T13:48:14.463Z,19.55
2019-04-16T13:50:41.091Z,15.88
2019-04-16T13:53:13.676Z,15.23
2019-04-16T13:55:44.582Z,19.25
2019-04-16T13:58:13.791Z,24.12
2019-04-16T14:00:59.457Z,16.23
2019-04-16T14:03:26.748Z,18.77
2019-04-16T14:05:55.636Z,15.90
2019-04-16T14:08:22.857Z,18.52
2019-04-16T14:10:50.330Z,16.65
2019-04-16T14:13:19.592Z,19.02
2019-04-16T14:15:46.829Z,15.08
2019-04-16T14:18:14.512Z,18.48
2019-04-16T14:20:41.746Z,21.10
2019-04-16T14:23:08.980Z,15.38
2019-04-16T14:25:36.266Z,16.55
2019-04-16T14:28:03.733Z,17.70
2019-04-16T14:30:33.209Z,17.27
2019-04-16T14:33:00.461Z,40.12
2019-04-16T14:35:33.291Z,28.98
2019-04-16T14:37:58.529Z,27.85
2019-04-16T14:40:25.822Z,24.47
2019-04-16T14:42:57.372Z,80.60
2019-04-16T14:45:57.062Z,20.05
2019-04-16T14:48:12.090Z,17.20
2019-04-16T14:50:39.374Z,13.08
2019-04-16T14:53:06.633Z,10.82
2019-04-16T14:55:35.681Z,18.07
2019-04-16T14:58:22.908Z,12.45
2019-04-16T15:01:00.792Z,21.30
2019-04-16T15:03:29.957Z,15.05
2019-04-16T15:06:11.177Z,24.55
2019-04-16T15:11:35.858Z,37.15
2019-04-16T15:14:08.524Z,24.32
2019-04-16T15:16:46.176Z,30.30
2019-04-16T15:19:30.158Z,28.05
2019-04-16T15:22:18.291Z,30.55
2019-04-16T15:24:47.409Z,27.93
2019-04-16T15:27:16.494Z,25.48
2019-04-16T15:29:45.851Z,31.65
2019-04-16T15:32:34.053Z,31.40
2019-04-16T15:35:00.701Z,29.60
2019-04-16T15:37:36.004Z,29.63
2019-04-16T15:40:08.335Z,30.30
2019-04-16T15:42:48.430Z,23.77
2019-04-16T15:45:19.940Z,21.70
2019-04-16T15:47:51.619Z,27.62
2019-04-16T15:50:23.483Z,29.65
2019-04-16T15:52:52.900Z,34.18
2019-04-16T15:55:24.422Z,55.98
2019-04-16T15:58:09.737Z,46.33
2019-04-16T16:00:55.394Z,34.53
2019-04-16T16:03:27.214Z,49.03
2019-04-16T16:05:56.217Z,41.85
2019-04-16T16:08:26.983Z,54.67
2019-04-16T16:10:56.130Z,43.83
2019-04-16T16:13:26.436Z,46.58
2019-04-16T16:15:54.453Z,31.40
2019-04-16T16:18:21.699Z,51.80
2019-04-16T16:20:49.209Z,43.90
2019-04-16T16:23:16.552Z,37.80
2019-04-16T16:25:43.825Z,62.27
2019-04-16T16:28:11.045Z,80.00
2019-04-16T16:30:38.260Z,70.30
2019-04-16T16:33:05.539Z,68.85
2019-04-16T16:35:34.810Z,95.30
2019-04-16T16:38:01.939Z,69.07
2019-04-16T16:40:29.219Z,44.88
2019-04-16T16:42:56.447Z,41.45
2019-04-16T16:45:27.120Z,47.18
2019-04-16T16:47:54.395Z,32.73
2019-04-16T16:50:21.572Z,32.25
2019-04-16T16:52:50.634Z,37.20
2019-04-16T16:55:20.213Z,61.70
2019-04-16T16:57:56.713Z,38.38
2019-04-16T17:00:36.604Z,55.88
2019-04-16T17:03:23.860Z,47.25
2019-04-16T17:05:54.014Z,28.87
2019-04-16T17:08:27.054Z,39.75
2019-04-16T17:10:57.012Z,48.60
2019-04-16T17:13:25.801Z,49.85
2019-04-16T17:15:55.595Z,49.20
2019-04-16T17:18:26.563Z,47.17
2019-04-16T17:20:53.957Z,48.23
2019-04-16T17:23:21.257Z,50.67
2019-04-16T17:25:48.626Z,53.95
2019-04-16T17:28:15.864Z,44.53
2019-04-16T17:30:47.811Z,52.80
2019-04-16T17:33:18.233Z,68.87
2019-04-16T17:35:48.854Z,71.15
2019-04-16T17:38:19.114Z,192.65
2019-04-16T17:40:51.125Z,291.90
2019-04-16T17:43:42.126Z,172.70
2019-04-16T17:46:28.456Z,125.10
2019-04-16T17:49:01.269Z,95.70
2019-04-16T17:51:37.083Z,157.50
2019-04-16T17:54:08.125Z,139.97
2019-04-16T17:56:51.852Z,101.53
2019-04-16T17:59:29.083Z,94.07
2019-04-16T18:01:59.126Z,99.10
2019-04-16T18:04:32.311Z,146.53
2019-04-16T18:07:08.454Z,158.70
2019-04-16T18:09:38.133Z,137.25
2019-04-16T18:12:09.143Z,119.02
2019-04-16T18:14:56.463Z,111.00
2019-04-16T18:17:47.294Z,109.20
2019-04-16T18:20:29.849Z,108.70
2019-04-16T18:22:59.584Z,102.70
2019-04-16T18:25:55.562Z,118.53
2019-04-16T18:28:18.615Z,124.58
2019-04-16T18:30:52.094Z,126.90
2019-04-16T18:33:21.629Z,136.37
2019-04-16T18:36:06.205Z,113.95
2019-04-16T18:38:42.016Z,127.02
2019-04-16T18:41:29.432Z,123.35
2019-04-16T18:43:59.793Z,139.50
2019-04-16T18:46:45.323Z,130.15
2019-04-16T18:49:19.686Z,135.50
2019-04-16T18:51:50.305Z,141.85
2019-04-16T18:54:19.503Z,140.07
2019-04-16T18:56:49.190Z,136.62
2019-04-16T18:59:19.072Z,148.60
2019-04-16T19:01:48.078Z,170.92
2019-04-16T19:04:15.351Z,167.72
2019-04-16T19:06:42.618Z,161.57
2019-04-16T19:09:09.840Z,174.05
2019-04-16T19:11:37.942Z,170.70
2019-04-16T19:14:05.233Z,149.72
2019-04-16T19:16:32.460Z,165.77
2019-04-16T19:18:59.782Z,194.32
2019-04-16T19:21:27.351Z,176.42
2019-04-16T19:23:54.625Z,155.48
2019-04-16T19:26:21.856Z,135.48
2019-04-16T19:28:49.369Z,147.90
2019-04-16T19:31:16.670Z,175.70
2019-04-16T19:33:43.899Z,151.90
2019-04-16T19:36:11.179Z,102.90
2019-04-16T19:38:39.356Z,96.08
2019-04-16T19:41:07.568Z,96.60
2019-04-16T19:43:35.687Z,113.17
2019-04-16T19:46:04.348Z,134.80
2019-04-16T19:48:35.977Z,144.97
2019-04-16T19:51:00.875Z,147.37
2019-04-16T19:53:28.084Z,134.15
2019-04-16T19:55:55.606Z,135.97
2019-04-16T19:58:23.363Z,121.35
2019-04-16T20:00:53.607Z,117.72
2019-04-16T20:03:19.874Z,116.15
2019-04-16T20:05:47.130Z,93.52
2019-04-16T20:08:14.350Z,86.47
2019-04-16T20:10:41.630Z,111.10
2019-04-16T20:13:10.171Z,122.02
2019-04-16T20:15:37.363Z,135.93
2019-04-16T20:18:06.589Z,172.75
2019-04-16T20:20:33.719Z,282.85
2019-04-16T20:23:02.475Z,189.97
2019-04-16T20:25:29.740Z,164.62
2019-04-16T20:27:57.074Z,142.18
2019-04-16T20:30:24.477Z,110.92
2019-04-16T20:32:51.799Z,115.97
2019-04-16T20:35:19.233Z,122.00
2019-04-16T20:37:46.506Z,118.50
2019-04-16T20:40:14.594Z,128.50
2019-04-16T20:42:42.897Z,127.55
2019-04-16T20:45:10.227Z,124.92
2019-04-16T20:47:39.972Z,131.93
2019-04-16T20:50:06.597Z,126.27
2019-04-16T20:52:35.103Z,121.30
2019-04-16T20:55:03.444Z,110.03
2019-04-16T20:57:30.826Z,120.53
2019-04-16T20:59:58.121Z,127.32
2019-04-16T21:02:27.169Z,137.00
2019-04-16T21:04:54.516Z,164.72
2019-04-16T21:07:23.557Z,156.10
2019-04-16T21:09:50.772Z,171.75
2019-04-16T21:12:18.125Z,140.97
2019-04-16T21:14:45.369Z,139.40
2019-04-16T21:17:12.632Z,130.00
2019-04-16T21:19:47.619Z,128.60
2019-04-16T21:22:15.772Z,116.80
2019-04-16T21:24:43.577Z,120.47
2019-04-16T21:27:10.954Z,129.60
2019-04-16T21:29:38.240Z,145.57
2019-04-16T21:32:10.283Z,166.35
2019-04-16T21:34:43.908Z,184.72
2019-04-16T21:37:15.701Z,165.82
2019-04-16T21:40:03.202Z,149.42
2019-04-16T21:42:34.470Z,136.05
2019-04-16T21:44:59.524Z,148.80
2019-04-16T21:47:46.570Z,152.68
2019-04-16T21:50:16.328Z,118.47
2019-04-16T21:52:42.859Z,119.42
2019-04-16T21:55:10.532Z,79.32
2019-04-16T21:57:37.761Z,51.88
2019-04-16T22:00:09.604Z,53.17
2019-04-16T22:02:40.425Z,57.67
2019-04-16T22:05:08.920Z,63.28
2019-04-16T22:07:36.228Z,72.08
2019-04-16T22:10:04.001Z,73.47
2019-04-16T22:12:31.364Z,69.32
2019-04-16T22:14:58.625Z,74.15
2019-04-16T22:17:25.863Z,74.35
2019-04-16T22:20:00.615Z,79.58
2019-04-16T22:22:25.616Z,82.17
2019-04-16T22:24:55.042Z,79.25
2019-04-16T22:27:21.601Z,79.05
2019-04-16T22:29:49.922Z,76.25
2019-04-16T22:32:17.154Z,74.92
2019-04-16T22:34:44.388Z,70.17
2019-04-16T22:37:11.682Z,79.50
2019-04-16T22:39:40.688Z,64.70
2019-04-16T22:42:09.838Z,74.92
2019-04-16T22:44:55.543Z,68.62
2019-04-16T22:47:27.340Z,71.92
2019-04-16T22:50:00.633Z,69.70
2019-04-16T22:52:23.681Z,76.72
2019-04-16T22:54:52.983Z,72.92
2019-04-16T22:57:19.966Z,70.90
2019-04-16T22:59:47.224Z,77.40
2019-04-16T23:02:22.194Z,76.02
2019-04-16T23:04:49.447Z,74.50
2019-04-16T23:07:16.682Z,70.80
2019-04-16T23:09:45.818Z,70.67
2019-04-16T23:12:13.046Z,72.72
2019-04-16T23:14:40.282Z,72.42
2019-04-16T23:17:13.463Z,72.80
2019-04-16T23:19:36.807Z,80.20
2019-04-16T23:22:04.242Z,76.77
2019-04-16T23:24:31.504Z,67.05
2019-04-16T23:27:04.174Z,70.62
2019-04-16T23:29:29.388Z,63.05
2019-04-16T23:31:56.693Z,60.92
2019-04-16T23:34:23.877Z,67.27
2019-04-16T23:36:51.121Z,71.42
2019-04-16T23:39:18.407Z,62.10
2019-04-16T23:41:48.247Z,59.53
2019-04-16T23:44:28.428Z,58.30
2019-04-16T23:47:03.202Z,58.55
2019-04-16T23:49:48.669Z,56.45
2019-04-16T23:52:20.591Z,64.70
2019-04-16T23:55:05.998Z,62.75
2019-04-16T23:57:37.515Z,62.00
